Time;durP1;ratioP1;P1;durP2;ratioP2;P2;SDS_P1;SDS_P2;PMS_P1;PMS_P2;Temp;Humidity;BMP_temperature;BMP_pressure;BME280_temperature;BME280_humidity;BME280_pressure;Samples;Min_cycle;Max_cycle;Signal;HPM_P1;HPM_P2
2023/03/19 00:02:00;;;;;;;21.00;16.13;;;;;;;;;;5038647;28;20911;-78
2023/03/19 00:04:27;;;;;;;20.67;16.23;;;;;;;;;;5055882;28;20498;-78
2023/03/19 00:06:53;;;;;;;21.60;16.67;;;;;;;;;;5055545;28;20451;-78
2023/03/19 00:09:20;;;;;;;22.53;17.07;;;;;;;;;;5036879;28;20544;-78
2023/03/19 00:11:46;;;;;;;20.60;16.90;;;;;;;;;;5048751;28;20494;-78
2023/03/19 00:14:12;;;;;;;23.77;18.10;;;;;;;;;;5036971;28;20427;-78
2023/03/19 00:16:38;;;;;;;22.20;17.67;;;;;;;;;;5038847;28;20971;-78
2023/03/19 00:19:04;;;;;;;24.30;18.08;;;;;;;;;;5056528;28;20440;-78
2023/03/19 00:21:31;;;;;;;24.50;18.67;;;;;;;;;;5056781;28;20707;-78
2023/03/19 00:24:01;;;;;;;24.07;18.40;;;;;;;;;;5056069;28;20432;-79
2023/03/19 00:26:36;;;;;;;24.63;18.67;;;;;;;;;;5054462;28;20751;-79
2023/03/19 00:29:03;;;;;;;24.03;18.80;;;;;;;;;;5030840;28;20421;-79
2023/03/19 00:31:29;;;;;;;24.35;18.65;;;;;;;;;;5035179;28;20801;-78
2023/03/19 00:33:59;;;;;;;24.17;18.83;;;;;;;;;;5029730;28;20907;-78
2023/03/19 00:36:27;;;;;;;25.05;18.92;;;;;;;;;;5038457;28;20423;-78
2023/03/19 00:38:53;;;;;;;22.55;18.70;;;;;;;;;;5054741;28;20431;-78
2023/03/19 00:41:19;;;;;;;23.92;19.05;;;;;;;;;;5054849;28;20418;-78
2023/03/19 00:43:45;;;;;;;23.42;18.85;;;;;;;;;;5051018;28;20437;-78
2023/03/19 00:46:11;;;;;;;24.08;19.52;;;;;;;;;;5054571;28;20420;-79
2023/03/19 00:48:37;;;;;;;24.38;18.90;;;;;;;;;;5056001;28;20418;-79
2023/03/19 00:51:04;;;;;;;24.50;19.23;;;;;;;;;;5037787;28;20426;-79
2023/03/19 00:53:31;;;;;;;24.30;18.40;;;;;;;;;;5054421;28;20420;-79
2023/03/19 00:55:57;;;;;;;23.05;18.25;;;;;;;;;;5021623;28;20906;-78
2023/03/19 00:58:23;;;;;;;21.63;18.00;;;;;;;;;;5052532;28;20448;-78
2023/03/19 01:00:52;;;;;;;23.83;17.90;;;;;;;;;;5052612;28;20907;-78
2023/03/19 01:03:18;;;;;;;24.42;18.77;;;;;;;;;;5054574;28;20416;-78
2023/03/19 01:05:44;;;;;;;24.27;18.77;;;;;;;;;;5054658;28;20833;-79
2023/03/19 01:08:10;;;;;;;23.60;18.45;;;;;;;;;;5054447;28;20423;-79
2023/03/19 01:10:36;;;;;;;22.97;18.20;;;;;;;;;;5053688;28;20510;-80
2023/03/19 01:13:02;;;;;;;22.42;17.35;;;;;;;;;;5051250;28;20459;-79
2023/03/19 01:15:28;;;;;;;20.48;16.48;;;;;;;;;;5012734;28;20425;-79
2023/03/19 01:17:54;;;;;;;21.25;15.80;;;;;;;;;;5035177;28;20503;-79
2023/03/19 01:20:22;;;;;;;16.98;13.43;;;;;;;;;;5042252;28;20538;-79
2023/03/19 01:22:49;;;;;;;15.57;12.50;;;;;;;;;;5054969;28;20400;-79
2023/03/19 01:25:15;;;;;;;15.57;12.25;;;;;;;;;;5051350;28;20532;-79
2023/03/19 01:27:41;;;;;;;14.63;11.00;;;;;;;;;;5052576;28;20906;-79
2023/03/19 01:30:08;;;;;;;16.40;11.52;;;;;;;;;;5019481;28;20411;-79
2023/03/19 01:32:34;;;;;;;16.00;11.90;;;;;;;;;;5037552;28;20815;-79
2023/03/19 01:35:00;;;;;;;14.27;11.13;;;;;;;;;;5036379;28;20439;-80
2023/03/19 01:37:27;;;;;;;15.40;11.13;;;;;;;;;;5054835;28;20487;-79
2023/03/19 01:39:53;;;;;;;14.63;11.10;;;;;;;;;;5051808;28;20420;-79
2023/03/19 01:42:19;;;;;;;16.25;11.20;;;;;;;;;;5069919;28;20907;-79
2023/03/19 01:44:45;;;;;;;15.45;11.70;;;;;;;;;;5051491;28;20426;-79
2023/03/19 01:47:15;;;;;;;16.98;12.40;;;;;;;;;;5037364;28;20712;-78
2023/03/19 01:49:44;;;;;;;18.13;12.68;;;;;;;;;;5031032;28;20456;-79
2023/03/19 01:52:11;;;;;;;17.20;12.70;;;;;;;;;;5034615;28;20421;-79
2023/03/19 01:54:38;;;;;;;17.55;12.73;;;;;;;;;;5031654;28;20442;-79
2023/03/19 01:57:12;;;;;;;16.17;12.33;;;;;;;;;;5054646;28;20434;-79
2023/03/19 01:59:41;;;;;;;15.95;12.75;;;;;;;;;;5017749;28;20425;-78
2023/03/19 02:02:25;;;;;;;16.67;12.98;;;10.90;99.90;;;;;;5042144;28;20427;-78
2023/03/19 02:04:55;;;;;;;16.55;12.48;;;;;;;;;;5034333;28;20420;-78
2023/03/19 02:07:21;;;;;;;16.38;12.13;;;;;;;;;;5054369;28;20745;-79
2023/03/19 02:09:47;;;;;;;17.35;12.93;;;;;;;;;;5050084;28;20477;-78
2023/03/19 02:12:15;;;;;;;18.42;13.02;;;10.30;99.90;;;;;;5054041;28;20418;-78
2023/03/19 02:14:41;;;;;;;16.95;13.13;;;;;;;;;;5052335;28;20427;-78
2023/03/19 02:17:07;;;;;;;16.42;12.60;;;;;;;;;;5037582;28;20427;-78
2023/03/19 02:19:41;;;;;;;16.67;12.52;;;10.60;99.90;;;;;;5036950;28;20419;-79
2023/03/19 02:22:09;;;;;;;17.00;12.32;;;10.50;99.90;;;;;;5052468;28;20435;-78
2023/03/19 02:24:40;;;;;;;14.63;11.50;;;10.60;99.90;;;;;;5035013;28;21994;-78
2023/03/19 02:27:08;;;;;;;15.10;11.23;;;;;;;;;;5035486;28;20417;-78
2023/03/19 02:29:34;;;;;;;14.48;11.02;;;;;;;;;;5053430;28;20473;-78
2023/03/19 02:32:02;;;;;;;14.60;10.40;;;;;;;;;;5053865;28;20967;-79
2023/03/19 02:34:37;;;;;;;12.85;10.27;;;10.20;99.90;;;;;;5049381;28;20420;-79
2023/03/19 02:37:07;;;;;;;14.52;10.10;;;;;;;;;;5032933;28;20978;-79
2023/03/19 02:39:48;;;;;;;12.93;10.20;;;10.70;99.90;;;;;;5039045;28;20481;-78
2023/03/19 02:42:16;;;;;;;13.48;10.15;;;10.50;99.90;;;;;;5052717;28;20442;-78
2023/03/19 02:44:42;;;;;;;12.70;9.93;;;;;;;;;;5050505;28;20495;-79
2023/03/19 02:47:08;;;;;;;12.57;9.88;;;;;;;;;;5032913;28;20681;-78
2023/03/19 02:49:34;;;;;;;12.65;9.82;;;;;;;;;;5043837;28;20415;-78
2023/03/19 02:52:01;;;;;;;12.43;9.48;;;;;;;;;;5050265;28;20427;-78
2023/03/19 02:54:27;;;;;;;11.88;9.50;;;;;;;;;;5034926;28;20412;-78
2023/03/19 02:56:53;;;;;;;11.30;8.68;;;;;;;;;;5049749;28;20425;-78
2023/03/19 02:59:20;;;;;;;10.43;8.40;;;;;;;;;;5052406;28;20423;-78
2023/03/19 03:01:46;;;;;;;11.13;8.60;;;;;;;;;;5051804;28;20426;-78
2023/03/19 03:04:15;;;;;;;10.40;8.00;;;;;;;;;;5036073;28;20806;-78
2023/03/19 03:06:41;;;;;;;13.25;8.10;;;;;;;;;;5051422;28;20411;-78
2023/03/19 03:09:07;;;;;;;10.23;7.88;;;;;;;;;;5050717;28;20415;-78
2023/03/19 03:11:33;;;;;;;11.05;7.50;;;;;;;;;;5051974;28;20431;-78
2023/03/19 03:13:59;;;;;;;10.52;7.60;;;;;;;;;;5035966;28;20427;-78
2023/03/19 03:16:26;;;;;;;10.27;7.60;;;;;;;;;;5051241;28;20514;-78
2023/03/19 03:18:52;;;;;;;8.68;7.10;;;;;;;;;;5051325;28;20445;-78
2023/03/19 03:21:20;;;;;;;9.37;6.90;;;;;;;;;;5036582;28;20400;-78
2023/03/19 03:23:47;;;;;;;8.82;6.68;;;;;;;;;;5036810;28;20776;-78
2023/03/19 03:26:13;;;;;;;9.00;6.95;;;;;;;;;;5032872;28;20485;-78
2023/03/19 03:28:39;;;;;;;9.02;6.78;;;;;;;;;;5049802;28;20427;-78
2023/03/19 03:31:05;;;;;;;8.80;6.50;;;;;;;;;;5053275;28;20458;-78
2023/03/19 03:33:32;;;;;;;9.43;7.25;;;;;;;;;;5058199;28;20427;-78
2023/03/19 03:35:58;;;;;;;10.35;6.65;;;;;;;;;;5049961;28;20415;-79
2023/03/19 03:38:24;;;;;;;9.90;6.60;;;;;;;;;;5051624;28;20431;-79
2023/03/19 03:40:54;;;;;;;8.63;6.77;;;10.60;99.90;;;;;;5034604;28;20419;-79
2023/03/19 03:43:20;;;;;;;10.05;6.38;;;;;;;;;;5037103;28;20418;-79
2023/03/19 03:45:47;;;;;;;8.87;6.70;;;;;;;;;;5044858;28;20512;-79
2023/03/19 03:48:14;;;;;;;9.85;6.57;;;10.60;99.90;;;;;;5039422;28;20432;-79
2023/03/19 03:50:40;;;;;;;8.10;6.25;;;;;;;;;;5033521;28;20488;-78
2023/03/19 03:53:07;;;;;;;7.93;6.13;;;;;;;;;;5033475;28;20416;-78
2023/03/19 03:55:33;;;;;;;7.65;6.10;;;;;;;;;;5030108;28;20429;-78
2023/03/19 03:58:00;;;;;;;8.40;6.27;;;;;;;;;;5048096;28;20430;-78
2023/03/19 04:00:26;;;;;;;9.88;6.70;;;;;;;;;;5036542;28;20413;-79
2023/03/19 04:02:52;;;;;;;8.50;6.20;;;;;;;;;;5036499;28;20415;-79
2023/03/19 04:05:18;;;;;;;8.60;6.80;;;;;;;;;;5051294;28;20491;-78
2023/03/19 04:07:45;;;;;;;8.52;6.50;;;;;;;;;;5036844;28;20411;-78
2023/03/19 04:10:11;;;;;;;9.13;6.88;;;;;;;;;;5051919;28;20447;-78
2023/03/19 04:12:38;;;;;;;8.18;6.72;;;;;;;;;;5052891;28;20882;-78
2023/03/19 04:15:05;;;;;;;8.45;6.30;;;;;;;;;;5056137;28;20446;-78
2023/03/19 04:17:31;;;;;;;8.65;6.70;;;;;;;;;;5018470;28;20504;-78
2023/03/19 04:19:58;;;;;;;8.47;6.70;;;;;;;;;;5054446;28;20423;-78
2023/03/19 04:22:24;;;;;;;8.68;6.85;;;;;;;;;;5036129;28;20421;-78
2023/03/19 04:24:50;;;;;;;8.98;7.10;;;;;;;;;;5036940;28;20401;-78
2023/03/19 04:27:16;;;;;;;9.63;7.10;;;;;;;;;;5052214;28;20516;-78
2023/03/19 04:29:42;;;;;;;10.57;7.50;;;;;;;;;;5036440;28;20415;-78
2023/03/19 04:32:08;;;;;;;11.10;7.40;;;;;;;;;;5050903;28;20417;-78
2023/03/19 04:34:34;;;;;;;10.20;7.20;;;;;;;;;;5037141;28;20498;-77
2023/03/19 04:37:01;;;;;;;12.30;8.32;;;;;;;;;;5039601;28;20418;-78
2023/03/19 04:39:27;;;;;;;10.93;8.10;;;;;;;;;;5053601;28;20424;-78
2023/03/19 04:41:53;;;;;;;10.13;8.13;;;;;;;;;;5037770;28;20535;-78
2023/03/19 04:44:19;;;;;;;11.27;8.35;;;;;;;;;;5054860;28;20426;-78
2023/03/19 04:46:46;;;;;;;12.35;9.40;;;;;;;;;;5053830;28;20423;-77
2023/03/19 04:49:12;;;;;;;12.65;9.30;;;;;;;;;;5054778;28;20420;-77
2023/03/19 04:51:38;;;;;;;12.52;9.40;;;;;;;;;;5020834;28;20798;-77
2023/03/19 04:54:04;;;;;;;13.18;9.25;;;;;;;;;;5055105;28;20813;-77
2023/03/19 04:56:31;;;;;;;13.53;9.33;;;;;;;;;;5053797;28;20423;-78
2023/03/19 04:58:57;;;;;;;12.73;9.65;;;;;;;;;;5055594;28;20452;-77
2023/03/19 05:01:23;;;;;;;13.13;9.93;;;;;;;;;;5055056;28;20875;-74
2023/03/19 05:03:50;;;;;;;14.52;10.35;;;;;;;;;;5054340;28;20415;-74
2023/03/19 05:06:16;;;;;;;14.18;10.32;;;;;;;;;;5037527;28;20763;-74
2023/03/19 05:08:42;;;;;;;14.18;10.43;;;;;;;;;;5036603;28;20427;-75
2023/03/19 05:11:08;;;;;;;13.15;10.13;;;;;;;;;;5055635;28;20431;-75
2023/03/19 05:13:34;;;;;;;14.13;10.57;;;;;;;;;;5055342;28;20407;-75
2023/03/19 05:16:00;;;;;;;13.00;10.17;;;;;;;;;;5028754;28;20970;-75
2023/03/19 05:18:28;;;;;;;14.68;10.75;;;;;;;;;;5038389;28;20428;-75
2023/03/19 05:20:54;;;;;;;16.00;11.23;;;;;;;;;;5054261;28;20509;-75
2023/03/19 05:23:21;;;;;;;15.43;10.70;;;;;;;;;;5036735;28;20587;-75
2023/03/19 05:25:48;;;;;;;14.82;11.27;;;;;;;;;;5047961;28;20411;-75
2023/03/19 05:28:14;;;;;;;16.23;11.57;;;;;;;;;;5051503;28;20431;-75
2023/03/19 05:30:41;;;;;;;15.55;12.20;;;;;;;;;;5047975;28;20434;-74
2023/03/19 05:33:07;;;;;;;17.08;12.02;;;;;;;;;;5053421;28;20426;-75
2023/03/19 05:35:34;;;;;;;16.85;12.50;;;;;;;;;;5055200;28;20399;-75
2023/03/19 05:38:00;;;;;;;17.75;12.70;;;;;;;;;;5051398;28;20503;-75
2023/03/19 05:40:27;;;;;;;17.25;12.23;;;;;;;;;;5037576;28;20518;-75
2023/03/19 05:42:53;;;;;;;17.33;12.38;;;;;;;;;;5036532;28;20415;-75
2023/03/19 05:45:19;;;;;;;16.67;12.65;;;;;;;;;;5055421;28;20475;-76
2023/03/19 05:47:49;;;;;;;17.00;12.60;;;;;;;;;;5054226;28;20427;-76
2023/03/19 05:50:15;;;;;;;18.17;12.70;;;;;;;;;;5056390;28;20400;-75
2023/03/19 05:52:41;;;;;;;17.73;12.32;;;;;;;;;;5018430;28;20942;-75
2023/03/19 05:55:08;;;;;;;17.42;12.88;;;;;;;;;;5054234;28;20806;-75
2023/03/19 05:57:34;;;;;;;18.58;12.75;;;;;;;;;;5053502;28;20767;-76
2023/03/19 06:00:01;;;;;;;17.80;12.63;;;;;;;;;;5037655;28;20427;-75
2023/03/19 06:02:27;;;;;;;18.20;12.70;;;;;;;;;;5038691;28;20899;-75
2023/03/19 06:04:53;;;;;;;19.10;12.65;;;;;;;;;;5058064;28;20929;-76
2023/03/19 06:07:19;;;;;;;17.98;13.40;;;;;;;;;;5056220;28;20862;-74
2023/03/19 06:09:45;;;;;;;19.27;13.60;;;;;;;;;;5039164;28;20404;-75
2023/03/19 06:12:11;;;;;;;19.52;12.57;;;;;;;;;;5053273;28;20449;-77
2023/03/19 06:14:37;;;;;;;17.48;12.75;;;;;;;;;;5034047;28;20481;-78
2023/03/19 06:17:03;;;;;;;19.23;13.00;;;;;;;;;;5055078;28;20422;-78
2023/03/19 06:19:29;;;;;;;18.58;13.68;;;;;;;;;;5038259;28;20412;-78
2023/03/19 06:21:55;;;;;;;19.77;13.55;;;;;;;;;;5051982;28;20412;-78
2023/03/19 06:24:21;;;;;;;19.95;13.18;;;;;;;;;;5054504;28;20407;-78
2023/03/19 06:26:47;;;;;;;20.33;13.23;;;;;;;;;;5035792;28;20416;-78
2023/03/19 06:29:14;;;;;;;19.92;13.23;;;;;;;;;;5037239;28;20419;-78
2023/03/19 06:31:40;;;;;;;19.52;13.68;;;;;;;;;;5032080;28;20428;-78
2023/03/19 06:34:06;;;;;;;17.77;13.23;;;;;;;;;;5026949;28;20434;-77
2023/03/19 06:36:32;;;;;;;34.92;14.75;;;;;;;;;;5053360;28;20441;-77
2023/03/19 06:38:59;;;;;;;18.27;12.73;;;;;;;;;;5053856;28;20749;-77
2023/03/19 06:41:25;;;;;;;19.08;12.90;;;;;;;;;;5033978;28;20491;-77
2023/03/19 06:43:52;;;;;;;36.38;13.48;;;;;;;;;;5053124;28;20469;-77
2023/03/19 06:46:18;;;;;;;39.75;14.50;;;;;;;;;;5052267;28;20446;-78
2023/03/19 06:48:44;;;;;;;82.78;17.95;;;;;;;;;;5050856;28;20427;-78
2023/03/19 06:51:10;;;;;;;21.48;12.10;;;;;;;;;;5053296;28;21001;-78
2023/03/19 06:53:36;;;;;;;16.60;11.77;;;;;;;;;;5052686;28;20964;-78
2023/03/19 06:56:03;;;;;;;29.00;12.80;;;;;;;;;;5037076;28;20475;-78
2023/03/19 06:58:29;;;;;;;23.48;12.43;;;;;;;;;;5052965;28;20427;-78
2023/03/19 07:00:55;;;;;;;18.95;12.20;;;;;;;;;;5036532;28;20419;-78
2023/03/19 07:03:22;;;;;;;27.13;12.20;;;;;;;;;;5034615;28;20415;-78
2023/03/19 07:05:50;;;;;;;52.65;15.40;;;;;;;;;;5034467;28;20411;-78
2023/03/19 07:08:16;;;;;;;13.57;10.10;;;;;;;;;;5035868;28;20430;-79
2023/03/19 07:10:42;;;;;;;13.70;9.88;;;;;;;;;;5051765;28;20749;-78
2023/03/19 07:13:09;;;;;;;13.47;10.77;;;;;;;;;;5036131;28;20423;-78
2023/03/19 07:15:35;;;;;;;18.20;11.07;;;;;;;;;;5053583;28;20427;-78
2023/03/19 07:18:01;;;;;;;12.07;9.38;;;;;;;;;;5051146;28;20431;-78
2023/03/19 07:20:28;;;;;;;11.63;9.05;;;;;;;;;;5051733;28;20447;-78
2023/03/19 07:22:54;;;;;;;13.13;9.82;;;;;;;;;;5026808;28;20423;-78
2023/03/19 07:25:20;;;;;;;13.77;9.63;;;;;;;;;;5028971;28;20889;-78
2023/03/19 07:27:47;;;;;;;12.13;9.20;;;;;;;;;;5053310;28;20415;-78
2023/03/19 07:30:13;;;;;;;19.70;10.15;;;;;;;;;;5050387;28;20553;-79
2023/03/19 07:32:39;;;;;;;13.25;9.13;;;;;;;;;;5050579;28;20423;-78
2023/03/19 07:35:06;;;;;;;13.52;9.48;;;;;;;;;;5032868;28;20925;-77
2023/03/19 07:37:33;;;;;;;13.43;9.43;;;;;;;;;;5049011;28;20416;-77
2023/03/19 07:39:59;;;;;;;12.27;9.93;;;;;;;;;;5045544;28;20423;-76
2023/03/19 07:42:25;;;;;;;12.85;9.93;;;;;;;;;;5036153;28;20421;-76
2023/03/19 07:44:51;;;;;;;13.98;10.02;;;;;;;;;;5048923;28;20434;-76
2023/03/19 07:47:17;;;;;;;13.23;9.83;;;;;;;;;;5052282;28;20523;-74
2023/03/19 07:49:43;;;;;;;14.80;10.85;;;;;;;;;;5054737;28;20835;-76
2023/03/19 07:52:09;;;;;;;15.98;11.35;;;;;;;;;;5053632;28;20429;-75
2023/03/19 07:54:36;;;;;;;14.53;10.97;;;;;;;;;;5033687;28;20408;-75
2023/03/19 07:57:02;;;;;;;13.85;11.10;;;;;;;;;;5048124;28;20430;-75
2023/03/19 07:59:28;;;;;;;16.55;12.13;;;;;;;;;;5054137;28;20423;-75
2023/03/19 08:01:54;;;;;;;16.02;11.93;;;;;;;;;;5054165;28;20810;-76
2023/03/19 08:04:20;;;;;;;16.13;12.63;;;;;;;;;;5038901;28;20416;-75
2023/03/19 08:06:46;;;;;;;16.58;12.40;;;;;;;;;;5038093;28;20943;-76
2023/03/19 08:09:13;;;;;;;18.70;13.20;;;;;;;;;;5039132;28;20463;-76
2023/03/19 08:11:39;;;;;;;17.45;12.95;;;;;;;;;;5055636;28;20423;-76
2023/03/19 08:14:05;;;;;;;17.17;13.50;;;;;;;;;;5030258;28;20435;-76
2023/03/19 08:16:31;;;;;;;17.97;13.17;;;;;;;;;;5033865;28;20428;-77
2023/03/19 08:18:57;;;;;;;17.58;13.65;;;;;;;;;;5051392;28;20459;-76
2023/03/19 08:21:23;;;;;;;17.25;13.52;;;;;;;;;;5053253;28;20412;-76
2023/03/19 08:23:49;;;;;;;17.20;13.82;;;;;;;;;;5038759;28;20514;-76
2023/03/19 08:26:15;;;;;;;16.90;13.70;;;;;;;;;;5053600;28;20447;-75
2023/03/19 08:28:42;;;;;;;15.88;12.95;;;;;;;;;;5056046;28;20422;-76
2023/03/19 08:31:09;;;;;;;17.15;13.80;;;;;;;;;;5038530;28;20941;-76
2023/03/19 08:33:35;;;;;;;17.23;13.25;;;;;;;;;;5051364;28;20427;-76
2023/03/19 08:36:07;;;;;;;16.88;12.82;;;11.70;99.90;;;;;;5056278;28;20493;-76
2023/03/19 08:38:33;;;;;;;15.15;11.48;;;;;;;;;;5039587;28;20459;-76
2023/03/19 08:41:01;;;;;;;15.63;12.32;;;;;;;;;;5056381;28;20408;-76
2023/03/19 08:43:28;;;;;;;14.98;11.93;;;;;;;;;;5034328;28;20421;-77
2023/03/19 08:45:54;;;;;;;15.32;12.00;;;;;;;;;;5038873;28;20415;-77
2023/03/19 08:48:20;;;;;;;14.98;12.00;;;;;;;;;;5052537;28;20425;-76
2023/03/19 08:50:54;;;;;;;14.90;11.87;;;11.40;99.90;;;;;;5038757;28;20419;-76
2023/03/19 08:53:21;;;;;;;15.93;11.55;;;;;;;;;;5055415;28;20873;-76
2023/03/19 08:55:51;;;;;;;15.50;11.77;;;;;;;;;;5047904;28;20512;-76
2023/03/19 08:58:17;;;;;;;16.63;11.73;;;;;;;;;;5041838;28;20553;-76
2023/03/19 09:00:43;;;;;;;14.50;11.10;;;;;;;;;;5029184;28;20415;-76
2023/03/19 09:03:09;;;;;;;15.02;11.50;;;;;;;;;;5031123;28;20430;-76
2023/03/19 09:05:35;;;;;;;15.68;11.98;;;;;;;;;;5037261;28;20422;-76
2023/03/19 09:08:02;;;;;;;14.57;11.40;;;;;;;;;;5040543;28;20499;-76
2023/03/19 09:10:28;;;;;;;15.75;12.32;;;;;;;;;;5041272;28;20419;-76
2023/03/19 09:12:54;;;;;;;15.00;12.35;;;;;;;;;;5032624;28;21052;-76
2023/03/19 09:15:20;;;;;;;15.00;11.43;;;;;;;;;;5050446;28;20427;-77
2023/03/19 09:17:46;;;;;;;16.48;12.05;;;;;;;;;;5052427;28;20474;-76
2023/03/19 09:20:12;;;;;;;15.18;11.90;;;;;;;;;;5051576;28;20434;-77
2023/03/19 09:22:38;;;;;;;15.65;11.35;;;;;;;;;;5043884;28;20986;-76
2023/03/19 09:25:04;;;;;;;14.60;11.17;;;;;;;;;;5047722;28;20438;-76
2023/03/19 09:27:31;;;;;;;15.30;10.68;;;;;;;;;;5036459;28;20415;-76
2023/03/19 09:29:57;;;;;;;15.73;11.57;;;;;;;;;;5032367;28;20514;-77
2023/03/19 09:32:23;;;;;;;14.50;10.98;;;;;;;;;;5046928;28;20446;-77
2023/03/19 09:34:49;;;;;;;15.27;11.45;;;;;;;;;;5032632;28;20428;-77
2023/03/19 09:37:15;;;;;;;15.82;11.45;;;;;;;;;;5015715;28;20415;-76
2023/03/19 09:39:41;;;;;;;15.80;12.13;;;;;;;;;;5049083;28;20463;-76
2023/03/19 09:42:26;;;;;;;16.67;11.82;;;;;;;;;;5020554;28;20826;-76
2023/03/19 09:44:53;;;;;;;15.38;11.60;;;;;;;;;;5043883;28;20415;-76
2023/03/19 09:47:30;;;;;;;15.10;11.98;;;;;;;;;;5028291;28;20477;-77
2023/03/19 09:50:05;;;;;;;14.32;11.30;;;;;;;;;;5045272;28;20436;-77
2023/03/19 09:52:47;;;;;;;16.40;12.63;;;11.50;99.90;;;;;;5032151;28;21135;-78
2023/03/19 09:55:17;;;;;;;16.17;12.25;;;11.60;99.90;;;;;;5048664;28;20419;-78
2023/03/19 09:57:44;;;;;;;16.25;12.00;;;;;;;;;;5050518;28;20426;-78
2023/03/19 10:00:35;;;;;;;19.17;14.02;;;11.50;99.90;;;;;;5032607;28;20438;-78
2023/03/19 10:03:07;;;;;;;17.70;12.83;;;;;;;;;;5043374;28;20463;-77
2023/03/19 10:05:36;;;;;;;18.85;13.60;;;;;;;;;;5049933;28;20443;-79
2023/03/19 10:08:12;;;;;;;18.75;13.90;;;;;;;;;;5051893;28;20414;-76
2023/03/19 10:10:38;;;;;;;17.63;13.67;;;;;;;;;;5049403;28;20426;-79
2023/03/19 10:13:04;;;;;;;20.77;14.23;;;;;;;;;;5051426;28;20423;-79
2023/03/19 10:15:35;;;;;;;18.55;14.00;;;;;;;;;;5050218;28;20456;-79
2023/03/19 10:18:04;;;;;;;19.23;14.60;;;;;;;;;;5048250;28;20784;-80
2023/03/19 10:20:35;;;;;;;19.13;14.68;;;;;;;;;;5051760;28;21052;-80
2023/03/19 10:23:19;;;;;;;20.40;14.75;;;;;;;;;;5036826;28;20415;-78
2023/03/19 10:25:45;;;;;;;18.35;14.07;;;;;;;;;;5046569;28;20955;-78
2023/03/19 10:28:14;;;;;;;18.00;13.82;;;;;;;;;;5008457;28;20427;-79
2023/03/19 10:30:42;;;;;;;18.30;14.13;;;;;;;;;;5032471;28;20434;-79
2023/03/19 10:33:22;;;;;;;17.35;13.90;;;;;;;;;;5040115;28;20413;-79
2023/03/19 10:35:50;;;;;;;19.70;14.82;;;;;;;;;;5044226;28;20427;-79
2023/03/19 10:38:21;;;;;;;19.75;14.93;;;;;;;;;;5032659;28;20438;-77
2023/03/19 10:41:01;;;;;;;19.23;14.10;;;;;;;;;;5050296;28;20435;-80
2023/03/19 10:43:27;;;;;;;19.73;14.82;;;;;;;;;;5062185;28;20843;-79
2023/03/19 10:45:53;;;;;;;20.27;14.90;;;;;;;;;;5050875;28;20500;-80
2023/03/19 10:48:19;;;;;;;18.90;15.10;;;;;;;;;;5030091;28;20520;-80
2023/03/19 10:50:59;;;;;;;20.15;14.60;;;;;;;;;;5016031;28;20417;-79
2023/03/19 10:53:30;;;;;;;20.50;14.45;;;;;;;;;;5048411;28;20458;-77
2023/03/19 10:56:00;;;;;;;20.55;15.05;;;;;;;;;;5045076;28;20423;-76
2023/03/19 10:58:27;;;;;;;25.73;18.40;;;;;;;;;;5045178;28;20435;-76
2023/03/19 11:00:58;;;;;;;26.98;18.77;;;;;;;;;;5044522;28;20427;-76
2023/03/19 11:03:39;;;;;;;26.43;18.60;;;11.20;99.90;;;;;;5042417;28;20443;-78
2023/03/19 11:06:24;;;;;;;26.20;18.52;;;;;;;;;;5031966;28;20417;-79
2023/03/19 11:08:53;;;;;;;21.17;16.23;;;;;;;;;;5048389;28;20419;-80
2023/03/19 11:11:25;;;;;;;20.77;15.82;;;11.40;99.90;;;;;;5051404;28;20427;-79
2023/03/19 11:13:51;;;;;;;22.60;16.75;;;;;;;;;;5051358;28;20462;-79
2023/03/19 11:16:17;;;;;;;21.58;15.95;;;;;;;;;;5029405;28;20964;-79
2023/03/19 11:18:47;;;;;;;21.13;15.52;;;11.50;99.90;;;;;;5046391;28;20425;-79
2023/03/19 11:21:24;;;;;;;21.20;15.55;;;;;;;;;;5036716;28;20423;-79
2023/03/19 11:24:00;;;;;;;23.13;15.65;;;10.90;99.90;;;;;;5054335;28;20503;-79
2023/03/19 11:26:29;;;;;;;22.52;16.13;;;;;;;;;;5043825;28;20425;-79
2023/03/19 11:29:03;;;;;;;22.60;15.50;;;;;;;;;;5054014;28;20430;-79
2023/03/19 11:31:46;;;;;;;19.73;15.00;;;;;;;;;;5056635;28;20437;-79
2023/03/19 11:34:33;;;;;;;19.27;14.48;;;;;;;;;;5056071;28;20927;-79
2023/03/19 11:37:34;;;;;;;24.90;17.15;;;11.80;99.90;;;;;;5055370;28;20423;-79
2023/03/19 11:40:13;;;;;;;25.63;18.45;;;;;;;;;;4940544;28;20451;-79
2023/03/19 11:42:44;;;;;;;28.92;18.40;;;;;;;;;;5044904;28;20436;-79
2023/03/19 11:45:13;;;;;;;28.20;18.93;;;;;;;;;;5040087;28;20775;-79
2023/03/19 11:48:11;;;;;;;27.50;18.60;;;11.60;99.90;;;;;;5049276;28;20520;-79
2023/03/19 11:50:56;;;;;;;25.48;18.17;;;11.50;99.90;;;;;;5047101;28;20427;-79
2023/03/19 11:53:26;;;;;;;27.15;17.70;;;;;;;;;;5034712;28;20423;-80
2023/03/19 11:56:10;;;;;;;30.27;18.70;;;;;;;;;;5049024;28;20431;-80
2023/03/19 11:58:56;;;;;;;27.52;18.00;;;;;;;;;;5038457;28;20975;-80
2023/03/19 12:01:53;;;;;;;29.77;18.98;;;11.50;99.90;;;;;;5056449;28;20411;-80
2023/03/19 12:04:42;;;;;;;28.63;17.55;;;;;;;;;;5055970;28;20424;-79
2023/03/19 12:07:23;;;;;;;25.75;16.75;;;;;;;;;;5045762;28;20498;-80
2023/03/19 12:10:10;;;;;;;27.23;18.60;;;;;;;;;;5049422;28;20446;-79
2023/03/19 12:12:39;;;;;;;33.28;21.42;;;;;;;;;;5018801;28;20503;-79
2023/03/19 12:15:05;;;;;;;33.53;20.97;;;;;;;;;;5054844;28;20528;-78
2023/03/19 12:17:58;;;;;;;33.80;21.75;;;11.40;99.90;;;;;;5029861;28;20450;-78
2023/03/19 12:20:24;;;;;;;29.80;19.40;;;;;;;;;;5047418;28;20431;-78
2023/03/19 12:23:04;;;;;;;31.67;20.23;;;11.70;99.90;;;;;;5030799;28;20420;-77
2023/03/19 12:26:04;;;;;;;28.52;18.65;;;12.00;99.90;;;;;;5052218;28;20423;-78
2023/03/19 12:28:35;;;;;;;28.05;18.35;;;11.60;99.90;;;;;;5034777;28;20937;-78
2023/03/19 12:31:16;;;;;;;26.43;17.60;;;;;;;;;;5049096;28;20481;-79
2023/03/19 12:33:53;;;;;;;24.73;17.20;;;;;;;;;;5051840;28;20420;-79
2023/03/19 12:36:28;;;;;;;26.40;17.77;;;;;;;;;;5053016;28;20419;-79
2023/03/19 12:39:02;;;;;;;25.15;17.00;;;;;;;;;;5030285;28;20833;-78
2023/03/19 12:41:30;;;;;;;27.88;18.85;;;11.90;99.90;;;;;;5046382;28;20434;-78
2023/03/19 12:44:08;;;;;;;25.55;17.60;;;;;;;;;;5051944;28;20416;-78
2023/03/19 12:46:40;;;;;;;27.67;18.50;;;;;;;;;;5049868;28;20427;-78
2023/03/19 12:49:15;;;;;;;26.33;17.33;;;11.90;99.90;;;;;;5032299;28;20763;-78
2023/03/19 12:51:45;;;;;;;27.92;17.95;;;11.90;99.90;;;;;;5054564;28;20503;-79
2023/03/19 12:54:16;;;;;;;24.48;16.65;;;12.30;99.90;;;;;;5041797;28;20465;-78
2023/03/19 12:56:46;;;;;;;23.85;15.82;;;;;;;;;;5046989;28;20419;-79
2023/03/19 12:59:35;;;;;;;25.58;16.92;;;;;;;;;;5050653;28;20419;-79
2023/03/19 13:02:15;;;;;;;30.35;18.90;;;12.20;99.90;;;;;;5060544;28;20418;-78
2023/03/19 13:04:54;;;;;;;31.15;19.88;;;12.20;99.90;;;;;;5050212;28;20472;-78
2023/03/19 13:07:31;;;;;;;30.88;18.70;;;;;;;;;;5031336;28;20510;-78
2023/03/19 13:10:05;;;;;;;30.00;19.33;;;;;;;;;;5045523;28;20480;-78
2023/03/19 13:12:33;;;;;;;36.97;23.00;;;;;;;;;;5050546;28;20470;-77
2023/03/19 13:15:28;;;;;;;32.75;20.30;;;12.10;99.90;;;;;;5035582;28;20526;-79
2023/03/19 13:18:11;;;;;;;30.98;19.02;;;;;;;;;;5042633;28;20427;-77
2023/03/19 13:20:56;;;;;;;28.75;18.10;;;11.70;99.90;;;;;;5045322;28;20507;-77
2023/03/19 13:23:24;;;;;;;29.20;18.73;;;;;;;;;;5049506;28;20420;-79
2023/03/19 13:25:51;;;;;;;33.90;20.08;;;;;;;;;;5050554;28;20743;-78
2023/03/19 13:29:00;;;;;;;33.30;20.20;;;11.50;99.90;;;;;;5032539;28;20473;-78
2023/03/19 13:31:27;;;;;;;30.48;18.58;;;11.60;99.90;;;;;;5051980;28;20775;-78
2023/03/19 13:34:04;;;;;;;30.80;18.57;;;;;;;;;;5043064;28;20433;-77
2023/03/19 13:36:31;;;;;;;31.05;18.00;;;;;;;;;;5050389;28;20419;-77
2023/03/19 13:38:58;;;;;;;28.40;17.23;;;;;;;;;;5034401;28;20844;-77
2023/03/19 13:41:38;;;;;;;29.65;18.42;;;;;;;;;;5052319;28;20423;-77
2023/03/19 13:44:25;;;;;;;29.10;17.60;;;11.30;99.90;;;;;;5051390;28;21270;-78
2023/03/19 13:46:52;;;;;;;31.03;18.77;;;;;;;;;;5035756;28;20415;-77
2023/03/19 13:49:32;;;;;;;26.08;16.13;;;;;;;;;;5049623;28;20419;-77
2023/03/19 13:52:03;;;;;;;28.25;17.85;;;;;;;;;;5050990;28;20427;-78
2023/03/19 13:54:38;;;;;;;27.50;16.80;;;11.70;99.90;;;;;;5051385;28;20434;-77
2023/03/19 13:57:05;;;;;;;26.90;16.30;;;;;;;;;;5050709;28;20431;-77
2023/03/19 13:59:33;;;;;;;25.55;15.63;;;11.60;99.90;;;;;;5035322;28;20428;-78
2023/03/19 14:02:18;;;;;;;25.85;14.98;;;;;;;;;;5027323;28;20821;-77
2023/03/19 14:04:51;;;;;;;25.13;14.40;;;;;;;;;;5049309;28;20415;-78
2023/03/19 14:07:22;;;;;;;23.30;14.07;;;;;;;;;;5031312;28;20521;-78
2023/03/19 14:09:49;;;;;;;22.10;13.45;;;;;;;;;;5047133;28;20432;-78
2023/03/19 14:12:15;;;;;;;21.70;12.90;;;;;;;;;;5031972;28;20425;-78
2023/03/19 14:14:47;;;;;;;21.52;12.05;;;;;;;;;;5049895;28;20416;-78
2023/03/19 14:17:18;;;;;;;23.75;12.82;;;11.70;99.90;;;;;;5032967;28;20431;-78
2023/03/19 14:19:44;;;;;;;23.52;13.35;;;;;;;;;;5054961;28;20464;-77